Time;durP1;ratioP1;P1;durP2;ratioP2;P2;SDS_P1;SDS_P2;PMS_P1;PMS_P2;Temp;Humidity;BMP_temperature;BMP_pressure;BME280_temperature;BME280_humidity;BME280_pressure;Samples;Min_cycle;Max_cycle;Signal;HPM_P1;HPM_P2
2021/11/22 00:02:26;;;;;;;7.95;4.95;;;4.30;99.90;;;;;;4972401;28;20246;-60
2021/11/22 00:04:55;;;;;;;9.25;4.20;;;4.30;99.90;;;;;;4970668;28;20222;-58
2021/11/22 00:07:23;;;;;;;12.02;4.85;;;4.20;99.90;;;;;;4972285;28;20223;-60
2021/11/22 00:09:51;;;;;;;6.20;3.75;;;4.10;99.90;;;;;;4971992;28;20242;-61
2021/11/22 00:12:19;;;;;;;11.32;4.65;;;4.00;99.90;;;;;;4972200;28;20270;-60
2021/11/22 00:14:47;;;;;;;6.55;4.35;;;3.90;99.90;;;;;;4971658;28;20470;-58
2021/11/22 00:17:16;;;;;;;10.25;4.35;;;3.80;99.90;;;;;;4970895;28;20222;-60
2021/11/22 00:19:45;;;;;;;11.07;4.10;;;3.80;99.90;;;;;;4971935;28;20218;-60
2021/11/22 00:22:13;;;;;;;10.10;4.53;;;3.80;99.90;;;;;;4972010;28;20798;-61
2021/11/22 00:24:41;;;;;;;8.07;4.40;;;3.80;99.90;;;;;;4971730;28;20878;-59
2021/11/22 00:27:10;;;;;;;6.63;4.05;;;3.80;99.90;;;;;;4971789;28;20250;-59
2021/11/22 00:29:38;;;;;;;7.35;4.18;;;3.70;99.90;;;;;;4986884;28;20238;-60
2021/11/22 00:32:19;;;;;;;7.28;4.55;;;3.70;99.90;;;;;;4972284;28;20298;-60
2021/11/22 00:35:09;;;;;;;7.05;5.93;;;3.70;99.90;;;;;;4971700;28;20225;-58
2021/11/22 00:37:44;;;;;;;5.47;4.60;;;3.70;99.90;;;;;;4970972;28;20218;-60
2021/11/22 00:40:14;;;;;;;6.47;3.70;;;3.70;99.90;;;;;;4971778;28;20230;-60
2021/11/22 00:42:45;;;;;;;5.53;3.92;;;3.70;99.90;;;;;;4972273;28;20662;-60
2021/11/22 00:45:14;;;;;;;6.78;4.18;;;3.60;99.90;;;;;;4974751;28;20219;-59
2021/11/22 00:47:43;;;;;;;10.85;5.45;;;3.70;99.90;;;;;;4975433;28;20262;-61
2021/11/22 00:50:12;;;;;;;7.82;3.80;;;3.70;99.90;;;;;;4978127;28;20225;-59
2021/11/22 00:52:41;;;;;;;6.50;4.68;;;3.70;99.90;;;;;;4975681;28;20597;-60
2021/11/22 00:55:10;;;;;;;9.27;4.05;;;3.70;99.90;;;;;;4974548;28;20718;-58
2021/11/22 00:57:38;;;;;;;8.13;3.97;;;3.70;99.90;;;;;;4975745;28;20274;-60
2021/11/22 01:00:10;;;;;;;9.10;4.00;;;3.60;99.90;;;;;;4974921;28;20226;-60
2021/11/22 01:02:38;;;;;;;8.52;5.40;;;3.70;99.90;;;;;;4975439;28;20206;-60
2021/11/22 01:05:08;;;;;;;10.05;3.92;;;3.70;99.90;;;;;;4974664;28;20314;-59
2021/11/22 01:07:38;;;;;;;11.30;4.47;;;3.70;99.90;;;;;;4989553;28;20238;-59
2021/11/22 01:10:08;;;;;;;5.65;4.10;;;3.70;99.90;;;;;;4994441;28;20230;-61
2021/11/22 01:12:36;;;;;;;6.70;4.13;;;3.70;99.90;;;;;;4985175;28;20218;-60
2021/11/22 01:15:08;;;;;;;4.95;3.63;;;3.70;99.90;;;;;;4974723;28;20593;-59
2021/11/22 01:17:38;;;;;;;10.93;4.38;;;3.70;99.90;;;;;;4990377;28;20298;-59
2021/11/22 01:20:08;;;;;;;15.75;4.35;;;3.70;99.90;;;;;;4974789;28;20227;-61
2021/11/22 01:22:38;;;;;;;10.02;4.43;;;3.70;99.90;;;;;;4975417;28;20250;-60
2021/11/22 01:25:07;;;;;;;6.40;3.67;;;3.80;99.90;;;;;;4974287;28;20230;-58
2021/11/22 01:27:46;;;;;;;10.82;4.50;;;3.90;99.90;;;;;;4974928;28;20281;-60
2021/11/22 01:30:15;;;;;;;6.30;4.03;;;3.90;99.90;;;;;;4974437;28;20301;-60
2021/11/22 01:32:44;;;;;;;11.32;4.22;;;3.90;99.90;;;;;;4975057;28;20187;-60
2021/11/22 01:35:12;;;;;;;18.38;5.00;;;3.90;99.90;;;;;;4974486;28;20215;-58
2021/11/22 01:37:43;;;;;;;9.00;4.82;;;4.00;99.90;;;;;;4974769;28;20215;-58
2021/11/22 01:40:13;;;;;;;7.55;4.25;;;4.00;99.90;;;;;;4979127;28;20214;-59
2021/11/22 01:42:42;;;;;;;9.50;4.85;;;4.10;99.90;;;;;;4992927;28;20194;-59
2021/11/22 01:45:13;;;;;;;9.40;5.07;;;4.10;99.90;;;;;;4993329;28;20746;-59
2021/11/22 01:47:42;;;;;;;19.58;5.40;;;4.20;99.90;;;;;;4993962;28;20688;-58
2021/11/22 01:50:14;;;;;;;8.80;4.97;;;4.20;99.90;;;;;;4989023;28;20241;-59
2021/11/22 01:52:44;;;;;;;8.50;5.13;;;4.30;99.90;;;;;;4994004;28;20245;-60
2021/11/22 01:55:15;;;;;;;7.28;5.18;;;4.40;99.90;;;;;;4993043;28;20213;-58
2021/11/22 01:57:45;;;;;;;12.32;4.80;;;4.40;99.90;;;;;;4983422;28;20223;-58
2021/11/22 02:00:17;;;;;;;9.52;5.07;;;4.50;99.90;;;;;;4974077;28;20715;-60
2021/11/22 02:02:46;;;;;;;13.27;4.88;;;4.50;99.90;;;;;;4974321;28;20259;-60
2021/11/22 02:05:15;;;;;;;6.43;4.72;;;4.60;99.90;;;;;;4973937;28;20230;-59
2021/11/22 02:07:44;;;;;;;7.88;5.43;;;4.60;99.90;;;;;;4974464;28;20558;-59
2021/11/22 02:10:12;;;;;;;7.63;5.03;;;4.70;99.90;;;;;;4973949;28;20582;-61
2021/11/22 02:12:41;;;;;;;15.20;8.52;;;4.70;99.90;;;;;;4973865;28;20724;-61
2021/11/22 02:15:11;;;;;;;16.10;8.45;;;4.90;99.90;;;;;;4973679;28;20219;-59
2021/11/22 02:17:42;;;;;;;22.38;11.80;;;4.90;99.90;;;;;;4973947;28;20254;-58
2021/11/22 02:20:14;;;;;;;19.55;12.10;;;5.00;99.90;;;;;;4973845;28;20957;-60
2021/11/22 02:22:45;;;;;;;18.50;13.05;;;5.00;99.90;;;;;;4974140;28;20254;-60
2021/11/22 02:25:16;;;;;;;21.80;13.45;;;5.00;99.90;;;;;;4973197;28;20282;-59
2021/11/22 02:27:46;;;;;;;24.85;16.25;;;5.00;99.90;;;;;;4973763;28;20270;-58
2021/11/22 02:30:16;;;;;;;17.85;12.52;;;5.00;99.90;;;;;;4973737;28;20543;-60
2021/11/22 02:32:45;;;;;;;25.02;14.27;;;5.10;99.90;;;;;;4974200;28;20192;-61
2021/11/22 02:35:17;;;;;;;21.92;13.60;;;5.00;99.90;;;;;;4973319;28;20285;-59
2021/11/22 02:37:45;;;;;;;17.23;13.57;;;5.10;99.90;;;;;;4973543;28;20226;-59
2021/11/22 02:40:14;;;;;;;24.95;16.02;;;5.10;99.90;;;;;;4973133;28;20701;-60
2021/11/22 02:42:44;;;;;;;30.35;16.08;;;5.10;99.90;;;;;;4973461;28;20203;-60
2021/11/22 02:45:16;;;;;;;24.98;18.15;;;5.00;99.90;;;;;;4971591;28;20231;-59
2021/11/22 02:47:44;;;;;;;24.30;15.38;;;5.00;99.90;;;;;;4973668;28;20219;-59
2021/11/22 02:50:15;;;;;;;22.45;15.43;;;5.00;99.90;;;;;;4973988;28;20570;-60
2021/11/22 02:52:44;;;;;;;22.02;13.80;;;5.00;99.90;;;;;;4973526;28;20650;-60
2021/11/22 02:55:15;;;;;;;27.38;15.82;;;5.10;99.90;;;;;;4972808;28;20650;-58
2021/11/22 02:57:44;;;;;;;26.08;16.50;;;5.10;99.90;;;;;;4973644;28;20226;-59
2021/11/22 03:00:15;;;;;;;23.63;16.05;;;5.00;99.90;;;;;;4972918;28;20226;-61
2021/11/22 03:02:44;;;;;;;23.13;15.88;;;5.00;99.90;;;;;;4973399;28;20732;-60
2021/11/22 03:05:14;;;;;;;29.13;16.17;;;5.10;99.90;;;;;;4972355;28;20226;-58
2021/11/22 03:07:43;;;;;;;28.50;17.25;;;5.10;99.90;;;;;;4972552;28;20593;-58
2021/11/22 03:10:15;;;;;;;26.10;17.20;;;5.00;99.90;;;;;;4972411;28;20775;-60
2021/11/22 03:12:43;;;;;;;25.30;17.60;;;5.10;99.90;;;;;;4973417;28;20725;-61
2021/11/22 03:15:14;;;;;;;22.00;16.02;;;5.00;99.90;;;;;;4972463;28;20218;-58
2021/11/22 03:17:42;;;;;;;26.83;15.63;;;5.00;99.90;;;;;;4973069;28;20219;-58
2021/11/22 03:20:14;;;;;;;35.55;20.33;;;5.10;99.90;;;;;;4972447;28;20269;-61
2021/11/22 03:22:43;;;;;;;34.75;18.83;;;5.00;99.90;;;;;;4973204;28;20202;-59
2021/11/22 03:25:13;;;;;;;33.47;18.75;;;5.00;99.90;;;;;;4972227;28;20219;-58
2021/11/22 03:27:42;;;;;;;40.97;21.40;;;4.90;99.90;;;;;;4973035;28;20291;-58
2021/11/22 03:30:12;;;;;;;31.20;19.63;;;4.90;99.90;;;;;;4972402;28;20223;-59
2021/11/22 03:32:41;;;;;;;36.20;19.60;;;5.00;99.90;;;;;;4972758;28;20226;-61
2021/11/22 03:35:09;;;;;;;28.90;20.60;;;5.00;99.90;;;;;;4972425;28;20293;-58
2021/11/22 03:37:39;;;;;;;31.92;20.67;;;5.10;99.90;;;;;;4972817;28;20214;-58
2021/11/22 03:40:09;;;;;;;38.58;21.90;;;5.00;99.90;;;;;;4972269;28;20619;-60
2021/11/22 03:42:51;;;;;;;28.83;19.95;;;5.10;99.90;;;;;;4972737;28;20661;-60
2021/11/22 03:45:20;;;;;;;29.27;18.10;;;5.20;99.90;;;;;;4988253;28;20226;-59
2021/11/22 03:47:48;;;;;;;28.17;18.55;;;5.20;99.90;;;;;;4992062;28;20613;-58
2021/11/22 03:50:16;;;;;;;25.00;17.70;;;5.30;99.90;;;;;;4986874;28;20625;-60
2021/11/22 03:52:46;;;;;;;28.75;18.75;;;5.30;99.90;;;;;;4972421;28;20282;-60
2021/11/22 03:55:14;;;;;;;28.58;18.98;;;5.30;99.90;;;;;;4971746;28;20231;-58
2021/11/22 03:57:42;;;;;;;30.63;19.00;;;5.20;99.90;;;;;;4972426;28;20625;-59
2021/11/22 04:00:12;;;;;;;30.52;19.10;;;5.20;99.90;;;;;;4972256;28;20339;-60
2021/11/22 04:02:40;;;;;;;27.67;17.83;;;5.20;99.90;;;;;;4975249;28;20227;-60
2021/11/22 04:05:09;;;;;;;32.25;20.70;;;5.20;99.90;;;;;;4980246;28;20273;-59
2021/11/22 04:07:37;;;;;;;32.22;19.58;;;5.20;99.90;;;;;;4991688;28;20249;-59
2021/11/22 04:10:08;;;;;;;27.17;17.83;;;5.20;99.90;;;;;;4991182;28;20214;-60
2021/11/22 04:12:36;;;;;;;32.75;18.30;;;5.20;99.90;;;;;;4982622;28;20597;-59
2021/11/22 04:15:05;;;;;;;35.67;20.63;;;5.30;99.90;;;;;;4971885;28;20653;-59
2021/11/22 04:17:34;;;;;;;34.25;22.17;;;5.20;99.90;;;;;;4973247;28;20637;-59
2021/11/22 04:20:02;;;;;;;36.95;19.13;;;5.20;99.90;;;;;;4975769;28;20591;-60
2021/11/22 04:22:30;;;;;;;31.13;20.52;;;5.20;99.90;;;;;;4975901;28;20242;-60
2021/11/22 04:24:58;;;;;;;35.05;21.00;;;5.20;99.90;;;;;;4975121;28;20246;-59
2021/11/22 04:27:28;;;;;;;31.27;21.23;;;5.20;99.90;;;;;;4975982;28;20226;-59
2021/11/22 04:29:56;;;;;;;32.60;21.05;;;5.20;99.90;;;;;;4975587;28;20275;-59
2021/11/22 04:32:24;;;;;;;32.63;21.38;;;5.20;99.90;;;;;;4976247;28;20195;-60
2021/11/22 04:34:52;;;;;;;30.50;19.08;;;5.20;99.90;;;;;;4975293;28;20727;-59
2021/11/22 04:37:21;;;;;;;31.08;21.25;;;5.20;99.90;;;;;;4975040;28;20643;-59
2021/11/22 04:39:49;;;;;;;37.67;20.05;;;5.20;99.90;;;;;;4975672;28;20629;-60
2021/11/22 04:42:17;;;;;;;33.40;19.67;;;5.20;99.90;;;;;;4975604;28;20681;-60
2021/11/22 04:44:47;;;;;;;27.48;18.02;;;5.30;99.90;;;;;;4975102;28;20215;-59
2021/11/22 04:47:19;;;;;;;30.63;20.08;;;5.30;99.90;;;;;;4975716;28;20653;-59
2021/11/22 04:49:48;;;;;;;28.40;17.65;;;5.20;99.90;;;;;;4976508;28;20223;-60
2021/11/22 04:52:17;;;;;;;27.75;19.10;;;5.30;99.90;;;;;;4978429;28;20207;-60
2021/11/22 04:54:46;;;;;;;31.63;19.60;;;5.20;99.90;;;;;;4974859;28;20270;-59
2021/11/22 04:57:15;;;;;;;34.47;19.02;;;5.20;99.90;;;;;;4975449;28;20203;-59
2021/11/22 04:59:44;;;;;;;27.02;17.35;;;5.20;99.90;;;;;;4975144;28;20277;-61
2021/11/22 05:02:14;;;;;;;33.53;18.23;;;5.30;99.90;;;;;;4975584;28;20199;-60
2021/11/22 05:04:42;;;;;;;31.83;19.83;;;5.20;99.90;;;;;;4975091;28;20211;-59
2021/11/22 05:07:16;;;;;;;28.98;17.48;;;5.20;99.90;;;;;;4974722;28;20227;-60
2021/11/22 05:09:46;;;;;;;22.45;16.65;;;5.30;99.90;;;;;;4973950;28;20309;-60
2021/11/22 05:12:14;;;;;;;32.88;17.88;;;5.30;99.90;;;;;;4980901;28;20199;-60
2021/11/22 05:14:44;;;;;;;32.35;18.52;;;5.30;99.90;;;;;;4994145;28;20595;-61
2021/11/22 05:17:14;;;;;;;34.55;16.88;;;5.20;99.90;;;;;;4994537;28;20207;-59
2021/11/22 05:19:42;;;;;;;35.28;18.58;;;5.20;99.90;;;;;;4994756;28;20304;-61
2021/11/22 05:22:17;;;;;;;25.20;16.25;;;5.30;99.90;;;;;;4988316;28;20191;-60
2021/11/22 05:24:48;;;;;;;27.92;15.68;;;5.30;99.90;;;;;;4974484;28;20764;-60
2021/11/22 05:27:17;;;;;;;28.60;16.75;;;5.30;99.90;;;;;;4975618;28;20227;-59
2021/11/22 05:29:46;;;;;;;25.67;17.05;;;5.30;99.90;;;;;;4973888;28;20736;-60
2021/11/22 05:32:16;;;;;;;22.95;14.65;;;5.30;99.90;;;;;;4975050;28;20191;-61
2021/11/22 05:34:45;;;;;;;30.40;16.80;;;5.30;99.90;;;;;;4974336;28;20231;-60
2021/11/22 05:37:14;;;;;;;24.50;16.00;;;5.30;99.90;;;;;;4974534;28;20266;-59
2021/11/22 05:39:42;;;;;;;23.00;15.18;;;5.30;99.90;;;;;;4974408;28;20230;-58
2021/11/22 05:42:10;;;;;;;26.23;16.80;;;5.30;99.90;;;;;;4974730;28;20195;-60
2021/11/22 05:44:39;;;;;;;27.35;16.58;;;5.30;99.90;;;;;;4974057;28;20223;-61
2021/11/22 05:47:09;;;;;;;27.27;15.02;;;5.30;99.90;;;;;;4973469;28;20693;-59
2021/11/22 05:49:39;;;;;;;21.00;14.73;;;5.30;99.90;;;;;;4975301;28;20229;-59
2021/11/22 05:52:10;;;;;;;24.27;15.77;;;5.40;99.90;;;;;;4975192;28;20274;-60
2021/11/22 05:54:46;;;;;;;26.33;15.88;;;5.40;99.90;;;;;;4973826;28;20278;-60
2021/11/22 05:57:14;;;;;;;24.80;16.30;;;5.40;99.90;;;;;;4979983;28;20284;-58
2021/11/22 05:59:42;;;;;;;21.60;15.65;;;5.40;99.90;;;;;;4993311;28;20273;-58
2021/11/22 06:02:10;;;;;;;20.95;15.80;;;5.50;99.90;;;;;;4993914;28;20565;-60
2021/11/22 06:04:40;;;;;;;27.35;16.60;;;5.50;99.90;;;;;;4990224;28;20280;-60
2021/11/22 06:07:09;;;;;;;25.52;17.40;;;5.40;99.90;;;;;;4974397;28;20219;-59
2021/11/22 06:09:37;;;;;;;24.08;15.75;;;5.50;99.90;;;;;;4973742;28;20222;-59
2021/11/22 06:12:07;;;;;;;22.88;13.88;;;5.50;99.90;;;;;;4974372;28;20195;-60
2021/11/22 06:14:35;;;;;;;27.08;16.27;;;5.50;99.90;;;;;;4985441;28;20226;-60
2021/11/22 06:17:03;;;;;;;24.65;14.05;;;5.50;99.90;;;;;;4993377;28;20709;-60
2021/11/22 06:19:32;;;;;;;29.13;16.15;;;5.60;99.90;;;;;;4993247;28;20245;-59
2021/11/22 06:22:02;;;;;;;33.78;16.05;;;5.60;99.90;;;;;;4980273;28;20219;-62
2021/11/22 06:24:30;;;;;;;22.60;15.52;;;5.60;99.90;;;;;;4972558;28;20697;-60
2021/11/22 06:26:58;;;;;;;21.88;14.05;;;5.60;99.90;;;;;;4972995;28;20223;-59
2021/11/22 06:29:26;;;;;;;19.40;12.80;;;5.60;99.90;;;;;;4973115;28;20254;-59
2021/11/22 06:31:54;;;;;;;21.73;13.98;;;5.60;99.90;;;;;;4973183;28;20219;-60
2021/11/22 06:34:23;;;;;;;21.17;13.85;;;5.60;99.90;;;;;;4972667;28;20203;-62
2021/11/22 06:36:51;;;;;;;17.83;12.70;;;5.60;99.90;;;;;;4972736;28;20458;-59
2021/11/22 06:39:21;;;;;;;16.35;12.93;;;5.50;99.90;;;;;;4973220;28;20198;-58
2021/11/22 06:41:49;;;;;;;21.30;13.57;;;5.50;99.90;;;;;;4972823;28;20330;-60
2021/11/22 06:44:20;;;;;;;21.27;13.05;;;5.40;99.90;;;;;;4972292;28;20207;-60
2021/11/22 06:46:48;;;;;;;15.68;11.57;;;5.40;99.90;;;;;;4972790;28;20207;-59
2021/11/22 06:49:17;;;;;;;16.08;12.55;;;5.30;99.90;;;;;;4973148;28;20618;-59
2021/11/22 06:51:46;;;;;;;17.27;12.30;;;5.20;99.90;;;;;;4989155;28;20257;-59
2021/11/22 06:54:14;;;;;;;16.70;10.90;;;5.10;99.90;;;;;;4992087;28;20241;-60
2021/11/22 06:56:44;;;;;;;14.23;10.35;;;5.00;99.90;;;;;;4988608;28;20207;-59
2021/11/22 06:59:12;;;;;;;14.60;11.82;;;4.90;99.90;;;;;;4971536;28;20669;-59
2021/11/22 07:01:40;;;;;;;13.63;10.57;;;4.80;99.90;;;;;;4991867;28;20732;-60
2021/11/22 07:04:09;;;;;;;17.10;11.32;;;4.70;99.90;;;;;;4991909;28;20194;-59
2021/11/22 07:06:37;;;;;;;14.57;11.13;;;4.70;99.90;;;;;;4991411;28;20230;-60
2021/11/22 07:09:06;;;;;;;15.32;11.63;;;4.70;99.90;;;;;;4991944;28;20191;-59
2021/11/22 07:11:34;;;;;;;18.20;11.75;;;4.60;99.90;;;;;;4991513;28;20680;-60
2021/11/22 07:14:05;;;;;;;18.13;11.48;;;4.40;99.90;;;;;;4991544;28;20657;-60
2021/11/22 07:16:34;;;;;;;17.10;10.80;;;4.40;99.90;;;;;;4991033;28;20343;-59
2021/11/22 07:19:02;;;;;;;13.73;10.73;;;4.40;99.90;;;;;;4991776;28;20293;-58
2021/11/22 07:21:30;;;;;;;14.13;11.10;;;4.40;99.90;;;;;;4991119;28;20265;-60
2021/11/22 07:23:59;;;;;;;16.58;10.80;;;4.40;99.90;;;;;;4991614;28;20286;-59
2021/11/22 07:26:27;;;;;;;16.42;11.27;;;4.40;99.90;;;;;;4991050;28;20226;-59
2021/11/22 07:28:55;;;;;;;14.70;10.50;;;4.30;99.90;;;;;;5006263;28;20222;-59
2021/11/22 07:31:24;;;;;;;18.02;10.82;;;4.30;99.90;;;;;;4998276;28;20971;-58
2021/11/22 07:33:53;;;;;;;15.98;9.27;;;4.30;99.90;;;;;;4991203;28;20204;-60
2021/11/22 07:36:21;;;;;;;16.65;10.13;;;4.30;99.90;;;;;;4997571;28;20313;-60
2021/11/22 07:38:49;;;;;;;19.70;11.80;;;4.20;99.90;;;;;;4991243;28;20194;-59
2021/11/22 07:41:19;;;;;;;15.52;11.50;;;4.20;99.90;;;;;;4994859;28;20217;-59
2021/11/22 07:43:48;;;;;;;18.23;10.13;;;4.20;99.90;;;;;;4991629;28;20241;-60
2021/11/22 07:46:16;;;;;;;15.32;9.98;;;4.20;99.90;;;;;;4990632;28;20276;-58
2021/11/22 07:48:45;;;;;;;16.23;7.90;;;4.10;99.90;;;;;;4998916;28;20194;-58
2021/11/22 07:51:14;;;;;;;16.08;9.15;;;4.10;99.90;;;;;;5010003;28;20229;-60
2021/11/22 07:53:42;;;;;;;10.45;8.75;;;4.10;99.90;;;;;;5009372;28;20197;-60
2021/11/22 07:56:12;;;;;;;11.70;8.73;;;4.10;99.90;;;;;;5010144;28;20279;-60
2021/11/22 07:58:40;;;;;;;12.88;8.77;;;4.10;99.90;;;;;;4991389;28;20198;-58
2021/11/22 08:01:08;;;;;;;14.35;9.73;;;4.10;99.90;;;;;;4988970;28;20280;-58
2021/11/22 08:03:37;;;;;;;14.80;9.63;;;4.10;99.90;;;;;;4990014;28;20669;-59
2021/11/22 08:06:06;;;;;;;11.38;8.70;;;4.10;99.90;;;;;;4997409;28;20218;-60
2021/11/22 08:08:37;;;;;;;12.00;8.70;;;4.20;99.90;;;;;;4991255;28;20237;-57
2021/11/22 08:11:17;;;;;;;11.52;9.50;;;4.30;99.90;;;;;;4990671;28;20243;-59
2021/11/22 08:13:47;;;;;;;13.50;9.77;;;4.30;99.90;;;;;;4989691;28;20200;-60
2021/11/22 08:16:15;;;;;;;11.88;7.72;;;4.40;99.90;;;;;;4990122;28;20723;-59
2021/11/22 08:18:44;;;;;;;15.68;9.98;;;4.40;99.90;;;;;;4991214;28;20191;-59
2021/11/22 08:21:14;;;;;;;10.38;8.57;;;4.50;99.90;;;;;;4990520;28;20225;-59
2021/11/22 08:23:42;;;;;;;11.80;9.18;;;4.60;99.90;;;;;;5009491;28;20228;-60
2021/11/22 08:26:10;;;;;;;11.68;8.93;;;4.70;99.90;;;;;;5009760;28;20689;-59
2021/11/22 08:28:38;;;;;;;12.80;9.02;;;4.70;99.90;;;;;;5006090;28;20308;-59
2021/11/22 08:31:07;;;;;;;9.80;8.05;;;4.80;99.90;;;;;;5008613;28;20229;-59
2021/11/22 08:33:35;;;;;;;10.55;8.93;;;4.80;99.90;;;;;;5010497;28;20194;-60
2021/11/22 08:36:04;;;;;;;14.38;10.25;;;4.90;99.90;;;;;;5001143;28;20305;-60
2021/11/22 08:38:33;;;;;;;12.52;10.75;;;4.90;99.90;;;;;;4990815;28;20194;-59
2021/11/22 08:41:03;;;;;;;12.77;10.23;;;5.00;99.90;;;;;;4976402;28;20727;-59
2021/11/22 08:43:32;;;;;;;13.23;10.10;;;5.00;99.90;;;;;;4987649;28;20204;-60
2021/11/22 08:46:00;;;;;;;13.95;10.00;;;5.10;99.90;;;;;;4990046;28;20333;-60
2021/11/22 08:48:28;;;;;;;12.75;10.50;;;5.10;99.90;;;;;;4982319;28;20266;-58
2021/11/22 08:50:56;;;;;;;16.80;10.98;;;5.10;99.90;;;;;;4970821;28;20235;-59
2021/11/22 08:53:25;;;;;;;13.45;11.10;;;5.10;99.90;;;;;;4971198;28;20207;-60
2021/11/22 08:55:54;;;;;;;13.35;10.60;;;5.10;99.90;;;;;;4970515;28;20582;-61
2021/11/22 08:58:23;;;;;;;13.27;10.25;;;5.10;99.90;;;;;;4971460;28;20242;-59
2021/11/22 09:00:51;;;;;;;17.38;12.55;;;5.20;99.90;;;;;;4979444;28;20230;-60
2021/11/22 09:03:20;;;;;;;16.08;12.75;;;5.20;99.90;;;;;;4989737;28;20195;-60
2021/11/22 09:05:48;;;;;;;14.35;11.07;;;5.20;99.90;;;;;;4977583;28;20222;-60
2021/11/22 09:08:16;;;;;;;17.40;13.30;;;5.20;99.90;;;;;;4974458;28;20265;-59
2021/11/22 09:10:45;;;;;;;15.70;12.80;;;5.30;99.90;;;;;;4974903;28;20226;-59
2021/11/22 09:13:17;;;;;;;22.35;13.15;;;5.30;99.90;;;;;;4978931;28;20299;-60
2021/11/22 09:15:46;;;;;;;15.18;10.93;;;5.30;99.90;;;;;;4973687;28;20226;-60
2021/11/22 09:18:14;;;;;;;17.15;11.55;;;5.30;99.90;;;;;;4974088;28;20206;-59
2021/11/22 09:20:42;;;;;;;18.05;11.73;;;5.30;99.90;;;;;;4973632;28;20239;-58
2021/11/22 09:23:11;;;;;;;17.80;12.40;;;5.40;99.90;;;;;;4988706;28;20201;-60
2021/11/22 09:25:40;;;;;;;14.32;11.50;;;5.40;99.90;;;;;;4992910;28;20234;-60
2021/11/22 09:28:10;;;;;;;16.02;12.50;;;5.40;99.90;;;;;;4979910;28;20219;-59
2021/11/22 09:30:39;;;;;;;15.10;12.05;;;5.50;99.90;;;;;;4973726;28;20681;-59
2021/11/22 09:33:10;;;;;;;13.65;11.30;;;5.60;99.90;;;;;;4974032;28;20199;-61
2021/11/22 09:35:38;;;;;;;14.32;11.85;;;5.60;99.90;;;;;;4971899;28;20732;-60
2021/11/22 09:38:07;;;;;;;15.70;12.23;;;5.60;99.90;;;;;;4993170;28;20219;-59
2021/11/22 09:40:36;;;;;;;18.70;13.50;;;5.70;99.90;;;;;;5002905;28;20225;-59
2021/11/22 09:43:05;;;;;;;16.85;11.55;;;5.70;99.90;;;;;;4999228;28;20668;-60
2021/11/22 09:45:33;;;;;;;15.80;11.52;;;5.80;99.90;;;;;;4979898;28;20222;-60
2021/11/22 09:48:06;;;;;;;16.10;12.80;;;5.90;99.90;;;;;;4973846;28;20215;-59
2021/11/22 09:50:35;;;;;;;18.63;12.38;;;5.90;99.90;;;;;;4987947;28;20226;-59
2021/11/22 09:53:05;;;;;;;16.08;12.85;;;5.90;99.90;;;;;;4973905;28;20245;-60
2021/11/22 09:55:33;;;;;;;15.57;12.15;;;6.00;99.90;;;;;;4973363;28;20270;-60
2021/11/22 09:58:04;;;;;;;16.95;13.65;;;6.30;99.90;;;;;;4973652;28;20290;-59
2021/11/22 10:00:37;;;;;;;18.17;11.88;;;6.40;99.90;;;;;;4973377;28;20303;-60
2021/11/22 10:03:12;;;;;;;15.40;11.48;;;6.40;99.90;;;;;;4973663;28;20239;-59
2021/11/22 10:05:42;;;;;;;16.92;12.38;;;6.40;99.90;;;;;;4972879;28;20240;-60
2021/11/22 10:08:13;;;;;;;15.07;10.73;;;6.60;99.90;;;;;;4991148;28;20321;-58
2021/11/22 10:10:44;;;;;;;14.82;11.80;;;6.50;99.90;;;;;;4992329;28;20236;-58
2021/11/22 10:13:28;;;;;;;14.02;11.52;;;6.40;99.90;;;;;;4978675;28;20195;-60
2021/11/22 10:15:59;;;;;;;14.80;11.55;;;6.30;99.90;;;;;;4971137;28;20597;-60
2021/11/22 10:18:30;;;;;;;13.45;11.30;;;6.40;99.90;;;;;;4973537;28;20183;-58
2021/11/22 10:21:05;;;;;;;14.63;12.27;;;6.50;99.90;;;;;;4984973;28;20541;-59
2021/11/22 10:23:35;;;;;;;18.17;11.85;;;6.60;99.90;;;;;;5007207;28;20206;-59
2021/11/22 10:26:04;;;;;;;15.02;11.73;;;6.60;99.90;;;;;;4991403;28;20249;-59
2021/11/22 10:28:38;;;;;;;13.15;10.40;;;6.40;99.90;;;;;;4975798;28;20266;-59
2021/11/22 10:31:07;;;;;;;14.95;11.77;;;6.30;99.90;;;;;;4972609;28;20587;-59
2021/11/22 10:33:39;;;;;;;17.10;13.10;;;6.30;99.90;;;;;;4973091;28;20199;-59
2021/11/22 10:36:10;;;;;;;21.83;15.55;;;6.20;99.90;;;;;;4970817;28;20215;-59
2021/11/22 10:38:40;;;;;;;20.33;11.55;;;6.20;99.90;;;;;;4983820;28;20661;-58
2021/11/22 10:41:11;;;;;;;13.95;12.02;;;6.20;99.90;;;;;;4988017;28;20222;-58
2021/11/22 10:43:49;;;;;;;19.30;14.10;;;6.10;99.90;;;;;;4991952;28;20206;-60
2021/11/22 10:46:22;;;;;;;18.67;11.85;;;6.00;99.90;;;;;;4974326;28;20226;-59
2021/11/22 10:48:53;;;;;;;15.20;12.27;;;6.10;99.90;;;;;;4972653;28;20645;-58
2021/11/22 10:51:24;;;;;;;19.35;13.40;;;6.10;99.90;;;;;;4972273;28;20230;-58
2021/11/22 10:53:55;;;;;;;15.32;12.60;;;6.00;99.90;;;;;;4987240;28;20204;-59
2021/11/22 10:56:25;;;;;;;16.05;11.85;;;6.00;99.90;;;;;;4972079;28;20234;-60
2021/11/22 10:58:56;;;;;;;13.07;9.40;;;6.10;99.90;;;;;;4991335;28;20281;-58
2021/11/22 11:01:30;;;;;;;12.57;9.32;;;5.90;99.90;;;;;;4991298;28;20792;-58
2021/11/22 11:04:06;;;;;;;11.30;8.15;;;5.80;99.90;;;;;;4990744;28;20198;-60
2021/11/22 11:06:44;;;;;;;13.13;8.52;;;5.80;99.90;;;;;;4988712;28;20320;-60
2021/11/22 11:09:16;;;;;;;12.07;8.57;;;5.80;99.90;;;;;;4972553;28;20206;-58
2021/11/22 11:11:46;;;;;;;12.73;8.43;;;5.80;99.90;;;;;;4987389;28;20314;-58
2021/11/22 11:14:16;;;;;;;10.23;8.27;;;6.00;99.90;;;;;;4972407;28;20293;-59
2021/11/22 11:16:45;;;;;;;8.63;7.40;;;6.10;99.90;;;;;;4972392;28;20266;-60
2021/11/22 11:19:18;;;;;;;10.20;8.70;;;6.30;99.90;;;;;;4972769;28;20191;-58
2021/11/22 11:21:50;;;;;;;12.60;9.68;;;6.40;99.90;;;;;;4972127;28;20215;-59
2021/11/22 11:24:19;;;;;;;11.15;9.35;;;6.50;99.90;;;;;;4971768;28;20171;-59
2021/11/22 11:26:48;;;;;;;6.35;5.38;;;6.60;99.90;;;;;;4971836;28;20693;-59
2021/11/22 11:29:16;;;;;;;8.65;7.18;;;6.70;99.90;;;;;;4972025;28;20257;-58
2021/11/22 11:31:45;;;;;;;6.45;5.80;;;6.60;99.90;;;;;;4982576;28;20274;-58
2021/11/22 11:34:16;;;;;;;10.77;6.65;;;6.70;99.90;;;;;;4988181;28;20229;-60
2021/11/22 11:37:09;;;;;;;7.88;6.90;;;6.80;99.90;;;;;;4986492;28;20340;-59
2021/11/22 11:40:12;;;;;;;7.38;6.68;;;6.70;99.90;;;;;;4979808;28;20763;-59
2021/11/22 11:43:22;;;;;;;12.10;8.10;;;6.70;99.90;;;;;;4972074;28;20199;-58
2021/11/22 11:45:55;;;;;;;10.88;8.43;;;6.90;99.90;;;;;;4976601;28;20241;-60
2021/11/22 11:48:45;;;;;;;10.38;7.03;;;6.90;99.90;;;;;;4991032;28;20209;-59
2021/11/22 11:51:17;;;;;;;9.90;7.20;;;6.90;99.90;;;;;;4999981;28;20250;-57
2021/11/22 11:54:13;;;;;;;12.52;9.23;;;6.50;99.90;;;;;;4990803;28;20668;-60
2021/11/22 11:56:52;;;;;;;10.65;9.48;;;6.30;99.90;;;;;;4985602;28;20221;-60
2021/11/22 11:59:26;;;;;;;9.93;7.28;;;6.10;99.90;;;;;;4971047;28;20194;-58
2021/11/22 12:01:58;;;;;;;7.63;6.85;;;6.20;99.90;;;;;;4971963;28;20199;-58
2021/11/22 12:04:27;;;;;;;8.77;7.20;;;6.30;99.90;;;;;;4985857;28;20203;-59
2021/11/22 12:06:58;;;;;;;7.32;6.22;;;6.40;99.90;;;;;;4971650;28;20223;-59
2021/11/22 12:09:31;;;;;;;10.50;5.82;;;6.70;99.90;;;;;;4970990;28;20238;-58
2021/11/22 12:12:01;;;;;;;11.82;8.45;;;7.00;99.90;;;;;;4976590;28;20215;-59
2021/11/22 12:14:49;;;;;;;9.55;7.85;;;7.10;99.90;;;;;;4970540;28;20195;-59
2021/11/22 12:17:54;;;;;;;8.02;7.07;;;7.30;99.90;;;;;;4971386;28;20224;-59
2021/11/22 12:20:55;;;;;;;7.97;6.72;;;7.20;99.90;;;;;;4958849;28;20226;-58
2021/11/22 12:23:39;;;;;;;13.40;10.52;;;7.40;99.90;;;;;;4949744;29;20200;-59
2021/11/22 12:26:12;;;;;;;11.20;9.68;;;7.30;99.90;;;;;;4985761;28;20234;-59
2021/11/22 12:28:59;;;;;;;11.65;9.55;;;7.40;99.90;;;;;;4972833;28;20203;-59
2021/11/22 12:31:33;;;;;;;12.65;11.35;;;7.10;99.90;;;;;;4972176;28;20231;-58
2021/11/22 12:34:10;;;;;;;12.30;10.90;;;7.00;99.90;;;;;;4990688;28;20196;-60
2021/11/22 12:36:49;;;;;;;12.65;11.27;;;6.80;99.90;;;;;;4994330;28;20282;-60
2021/11/22 12:39:26;;;;;;;10.98;9.20;;;6.60;99.90;;;;;;4992222;28;20202;-58
2021/11/22 12:42:16;;;;;;;12.05;10.52;;;6.50;99.90;;;;;;4994270;28;20202;-58
2021/11/22 12:45:04;;;;;;;10.52;9.35;;;6.60;99.90;;;;;;4993636;28;20218;-59
2021/11/22 12:47:33;;;;;;;12.65;11.40;;;6.70;99.90;;;;;;4993989;28;20210;-59
2021/11/22 12:50:16;;;;;;;12.52;10.55;;;6.80;99.90;;;;;;4993949;28;20215;-58
2021/11/22 12:53:07;;;;;;;12.68;9.85;;;6.80;99.90;;;;;;5013314;28;20194;-58
2021/11/22 12:55:39;;;;;;;13.23;9.32;;;6.80;99.90;;;;;;5000752;28;20235;-60
2021/11/22 12:58:13;;;;;;;11.85;10.07;;;6.80;99.90;;;;;;5000676;28;20228;-60
2021/11/22 13:00:43;;;;;;;10.68;9.13;;;6.90;99.90;;;;;;5004892;28;20224;-59
2021/11/22 13:03:13;;;;;;;10.70;9.60;;;6.90;99.90;;;;;;5014200;28;20191;-58